Time;durP1;ratioP1;P1;durP2;ratioP2;P2;SDS_P1;SDS_P2;PMS_P1;PMS_P2;Temp;Humidity;BMP_temperature;BMP_pressure;BME280_temperature;BME280_humidity;BME280_pressure;Samples;Min_cycle;Max_cycle;Signal;HPM_P1;HPM_P2
2022/05/29 00:00:11;;;;;;;2.50;1.40;;;;;;;12.78;99.30;100096.69;5022823;28;20207;-73
2022/05/29 00:02:36;;;;;;;1.60;1.33;;;;;;;12.77;99.27;100101.94;5023933;28;20241;-73
2022/05/29 00:05:02;;;;;;;3.60;1.40;;;;;;;12.74;99.66;100102.84;5020232;28;20183;-73
2022/05/29 00:07:28;;;;;;;2.27;1.50;;;;;;;12.72;99.82;100101.16;5020250;28;20285;-75
2022/05/29 00:09:53;;;;;;;2.03;1.60;;;;;;;12.70;100.00;100087.38;5023668;28;20283;-75
2022/05/29 00:12:21;;;;;;;1.97;1.60;;;;;;;12.67;100.00;100093.47;5055333;28;20722;-75
2022/05/29 00:14:48;;;;;;;1.40;1.20;;;;;;;12.66;100.00;100099.53;5020005;28;20899;-76
2022/05/29 00:17:18;;;;;;;2.50;1.50;;;;;;;12.64;100.00;100093.53;5025708;28;20270;-76
2022/05/29 00:19:44;;;;;;;1.77;1.20;;;;;;;12.62;100.00;100092.72;5025305;28;20749;-76
2022/05/29 00:22:17;;;;;;;1.60;1.43;;;;;;;12.59;100.00;100080.66;5034538;28;20179;-76
2022/05/29 00:24:44;;;;;;;1.97;1.43;;;;;;;12.56;100.00;100079.84;5023491;28;20693;-76
2022/05/29 00:27:11;;;;;;;2.40;1.77;;;;;;;12.55;100.00;100083.34;5020226;28;20594;-75
2022/05/29 00:29:37;;;;;;;2.37;1.50;;;;;;;12.54;100.00;100085.09;5021092;28;20262;-72
2022/05/29 00:32:05;;;;;;;1.87;1.67;;;;;;;12.56;100.00;100082.47;5024108;28;20188;-72
2022/05/29 00:34:30;;;;;;;1.63;1.50;;;;;;;12.53;99.94;100091.16;5024456;28;20180;-72
2022/05/29 00:36:58;;;;;;;2.30;1.57;;;;;;;12.52;100.00;100076.47;5023731;28;20218;-72
2022/05/29 00:39:24;;;;;;;1.77;1.43;;;;;;;12.50;100.00;100073.06;5023975;28;20215;-73
2022/05/29 00:41:50;;;;;;;1.93;1.70;;;;;;;12.49;100.00;100071.34;5023835;28;20839;-75
2022/05/29 00:44:20;;;;;;;3.10;1.63;;;;;;;12.44;100.00;100074.03;5021275;28;20199;-76
2022/05/29 00:46:49;;;;;;;1.93;1.30;;;;;;;12.42;100.00;100072.34;5019385;28;20675;-76
2022/05/29 00:49:17;;;;;;;2.60;1.50;;;;;;;12.40;100.00;100066.34;5017834;28;20963;-76
2022/05/29 00:51:48;;;;;;;1.73;1.40;;;;;;;12.37;100.00;100063.81;5018920;28;20191;-76
2022/05/29 00:54:14;;;;;;;2.07;1.53;;;;;;;12.35;100.00;100061.22;5017297;28;20256;-76
2022/05/29 00:56:40;;;;;;;2.47;1.70;;;;;;;12.35;100.00;100054.31;5027922;28;20313;-76
2022/05/29 00:59:12;;;;;;;2.50;1.93;;;;;;;12.37;100.00;100053.44;5025483;28;20290;-76
2022/05/29 01:01:38;;;;;;;2.57;1.77;;;;;;;12.33;100.00;100052.63;5024188;28;20242;-76
2022/05/29 01:04:03;;;;;;;1.90;1.70;;;;;;;12.31;100.00;100051.81;5023957;28;20627;-74
2022/05/29 01:06:29;;;;;;;1.67;1.57;;;;;;;12.29;99.47;100051.84;5024070;28;20185;-74
2022/05/29 01:08:58;;;;;;;2.10;1.57;;;;;;;12.27;98.36;100045.81;5024942;28;20244;-76
2022/05/29 01:11:36;;;;;;;1.77;1.67;;;;;;;12.26;96.26;100040.66;5020427;28;20183;-76
2022/05/29 01:14:24;;;;;;;1.50;1.40;;;;;;;12.24;95.41;100045.03;5023650;28;20184;-76
2022/05/29 01:17:04;;;;;;;2.33;1.70;;;;;;;12.26;95.40;100044.09;5024112;28;20199;-76
2022/05/29 01:19:54;;;;;;;1.83;1.53;;;;;;;12.30;95.12;100044.91;5023896;28;20286;-76
2022/05/29 01:22:44;;;;;;;2.10;1.50;;;;;;;12.33;95.06;100042.25;5018944;28;20180;-76
2022/05/29 01:25:35;;;;;;;1.90;1.30;;;;;;;12.29;93.07;100041.44;5027893;28;20186;-76
2022/05/29 01:28:13;;;;;;;2.93;1.50;;;;;;;12.29;92.01;100036.25;5021045;28;20191;-76
2022/05/29 01:31:12;;;;;;;2.57;1.47;;;;;;;12.24;89.93;100035.53;5025679;28;20183;-73
2022/05/29 01:33:55;;;;;;;2.30;1.43;;;;;;;12.20;88.21;100034.72;5056213;28;20207;-74
2022/05/29 01:36:50;;;;;;;3.63;1.93;;;;;;;12.17;86.79;100036.50;5022782;28;20243;-74
2022/05/29 01:39:19;;;;;;;3.17;1.73;;;;;;;12.13;86.08;100025.34;5001367;28;20316;-74
2022/05/29 01:41:57;;;;;;;3.13;1.73;;;;;;;12.12;85.74;100025.38;5024759;28;20198;-73
2022/05/29 01:44:44;;;;;;;2.80;1.47;;;;;;;12.10;85.54;100019.38;5023154;28;20369;-73
2022/05/29 01:47:21;;;;;;;3.33;1.77;;;;;;;12.08;85.59;100019.38;5026126;28;20195;-75
2022/05/29 01:49:53;;;;;;;3.17;1.50;;;;;;;12.07;85.51;100020.28;5022690;28;20266;-75
2022/05/29 01:52:31;;;;;;;2.63;1.60;;;;;;;12.08;84.45;100018.53;5025117;28;20196;-75
2022/05/29 01:55:19;;;;;;;3.80;1.63;;;;;;;12.06;84.92;100015.97;5026278;28;20196;-75
2022/05/29 01:57:48;;;;;;;2.83;1.53;;;;;;;12.09;84.81;100018.50;5028366;28;20191;-75
2022/05/29 02:00:19;;;;;;;3.17;1.50;;;;;;;12.08;84.90;100018.53;5029138;28;20205;-75
2022/05/29 02:02:51;;;;;;;4.00;1.70;;;;;;;12.07;85.21;100016.84;5025841;28;20594;-75
2022/05/29 02:05:27;;;;;;;2.30;1.47;;;;;;;12.08;85.41;100015.94;5030392;28;20274;-75
2022/05/29 02:08:02;;;;;;;3.47;1.33;;;;;;;12.04;85.55;100012.53;5029000;28;20305;-75
2022/05/29 02:10:53;;;;;;;3.33;1.83;;;;;;;12.03;85.55;100010.84;5026903;28;20198;-75
2022/05/29 02:13:31;;;;;;;3.93;1.70;;;;;;;12.02;85.20;100011.75;5022354;28;20192;-75
2022/05/29 02:16:33;;;;;;;2.43;1.40;;;;;;;11.98;85.68;100007.47;5024380;28;20251;-75
2022/05/29 02:19:10;;;;;;;2.70;1.80;;;;;;;11.99;85.91;100006.59;5030443;28;20207;-75
2022/05/29 02:21:40;;;;;;;3.90;1.40;;;;;;;11.98;85.83;100013.50;5028319;28;20190;-75
2022/05/29 02:24:12;;;;;;;3.77;2.00;;;;;;;12.00;85.93;100010.91;5040952;28;20295;-75
2022/05/29 02:26:44;;;;;;;3.30;1.70;;;;;;;12.01;85.93;100003.09;5027978;28;20293;-75
2022/05/29 02:29:11;;;;;;;3.57;1.63;;;;;;;12.02;84.42;99997.03;5023099;28;20289;-75
2022/05/29 02:32:06;;;;;;;3.97;1.80;;;;;;;12.00;84.93;99992.75;5029462;28;20192;-75
2022/05/29 02:35:05;;;;;;;2.87;1.60;;;;;;;11.99;84.82;99999.66;5055737;28;20196;-75
2022/05/29 02:38:34;;;;;;;3.23;1.63;;;;;;;11.97;84.43;99995.38;5037362;28;20192;-75
2022/05/29 02:41:09;;;;;;;5.27;1.90;;;;;;;11.95;83.72;99992.78;4983399;28;20473;-75
2022/05/29 02:43:51;;;;;;;3.87;1.70;;;;;;;11.94;83.77;99992.84;4983232;28;20205;-75
2022/05/29 02:46:16;;;;;;;3.63;1.70;;;;;;;11.89;82.82;99985.16;5012918;28;20231;-75
2022/05/29 02:48:46;;;;;;;5.00;2.10;;;;;;;11.87;82.95;99987.75;5024157;28;20730;-75
2022/05/29 02:51:21;;;;;;;5.10;1.90;;;;;;;11.85;82.30;99986.09;5032659;28;20590;-75
2022/05/29 02:53:46;;;;;;;5.87;1.90;;;;;;;11.79;82.83;99978.44;5024903;28;20691;-73
2022/05/29 02:56:13;;;;;;;4.77;2.07;;;;;;;11.77;82.72;99975.03;5022611;28;20188;-73
2022/05/29 02:58:43;;;;;;;5.00;2.00;;;;;;;11.74;82.87;99974.19;5024596;28;20203;-73
2022/05/29 03:01:29;;;;;;;3.13;1.70;;;;;;;11.74;81.67;99981.09;5026569;28;20198;-73
2022/05/29 03:03:58;;;;;;;4.93;2.17;;;;;;;11.69;82.36;99968.22;5023150;28;20215;-73
2022/05/29 03:06:37;;;;;;;5.97;2.07;;;;;;;11.66;82.47;99968.28;5024510;28;20230;-73
2022/05/29 03:09:20;;;;;;;4.73;2.37;;;;;;;11.65;82.37;99963.97;5019960;28;20216;-75
2022/05/29 03:11:46;;;;;;;5.00;2.03;;;;;;;11.64;82.06;99967.47;5021091;28;20191;-75
2022/05/29 03:14:31;;;;;;;4.40;2.03;;;;;;;11.63;82.27;99967.50;5025343;28;20198;-75
2022/05/29 03:16:59;;;;;;;4.03;2.30;;;;;;;11.58;82.37;99962.41;5024321;28;20285;-75
2022/05/29 03:19:27;;;;;;;5.03;2.60;;;;;;;11.55;82.24;99965.03;5019595;28;20341;-75
2022/05/29 03:22:02;;;;;;;5.43;1.87;;;;;;;11.49;82.24;99963.41;5020065;28;20191;-75
2022/05/29 03:24:59;;;;;;;4.10;2.20;;;;;;;11.44;82.96;99963.50;5025145;28;20214;-75
2022/05/29 03:27:44;;;;;;;5.83;2.03;;;;;;;11.37;83.15;99964.47;5003046;28;20215;-75
2022/05/29 03:30:22;;;;;;;4.13;2.37;;;;;;;11.35;83.47;99955.03;5027606;28;20206;-75
2022/05/29 03:32:52;;;;;;;4.80;2.00;;;;;;;11.27;84.26;99957.75;5027575;28;20560;-75
2022/05/29 03:35:23;;;;;;;6.77;2.20;;;;;;;11.22;85.10;99951.78;5026069;28;20279;-76
2022/05/29 03:37:49;;;;;;;5.43;2.80;;;;;;;11.16;85.87;99947.56;5025139;28;20202;-76
2022/05/29 03:40:15;;;;;;;5.13;2.20;;;;;;;11.06;86.11;99944.28;5024360;28;20738;-75
2022/05/29 03:42:41;;;;;;;3.87;2.10;;;;;;;10.99;86.26;99947.84;5023474;28;20188;-73
2022/05/29 03:45:08;;;;;;;4.00;1.93;;;;;;;10.92;86.34;99954.00;5022379;28;20184;-74
2022/05/29 03:47:34;;;;;;;3.67;1.80;;;;;;;10.84;86.41;99956.72;5022328;28;20199;-74
2022/05/29 03:50:00;;;;;;;3.37;1.90;;;;;;;10.77;86.43;99955.94;5022510;28;20675;-74
2022/05/29 03:52:25;;;;;;;4.17;2.20;;;;;;;10.73;86.60;99962.06;5022328;28;20203;-73
2022/05/29 03:54:54;;;;;;;2.93;2.00;;;;;;;10.70;86.63;99954.34;5025905;28;20195;-74
2022/05/29 03:57:20;;;;;;;6.77;2.27;;;;;;;10.73;87.05;99953.44;5025363;28;20187;-73
2022/05/29 03:59:45;;;;;;;5.40;2.80;;;;;;;10.70;87.59;99956.94;5021444;28;20965;-73
2022/05/29 04:02:11;;;;;;;4.13;2.00;;;;;;;10.67;88.20;99962.16;5023073;28;20613;-73
2022/05/29 04:04:36;;;;;;;5.93;2.53;;;;;;;10.69;88.41;99955.22;5019698;28;20298;-74
2022/05/29 04:07:02;;;;;;;6.03;2.53;;;;;;;10.70;88.30;99950.88;5015332;28;20180;-73
2022/05/29 04:12:13;;;;;;;4.90;1.87;;;;;;;10.70;88.36;99963.81;5022342;28;20203;-75
2022/05/29 04:14:42;;;;;;;5.70;2.37;;;;;;;10.72;88.42;99968.13;5021714;28;20181;-75
2022/05/29 04:17:11;;;;;;;5.03;2.40;;;;;;;10.75;88.44;99972.38;5024749;28;20184;-76
2022/05/29 04:19:36;;;;;;;4.87;2.30;;;;;;;10.81;88.41;99972.31;5024313;28;20294;-76
2022/05/29 04:22:13;;;;;;;4.43;2.53;;;;;;;10.90;88.03;99972.16;5021578;28;20350;-76
2022/05/29 04:24:39;;;;;;;4.50;2.23;;;;;;;11.03;88.12;99974.56;5015098;28;20322;-76
2022/05/29 04:27:08;;;;;;;3.67;1.93;;;;;;;11.19;88.02;99970.00;5018199;28;20320;-76
2022/05/29 04:29:33;;;;;;;5.87;2.67;;;;;;;11.38;87.69;99976.56;5017224;28;20213;-73
2022/05/29 04:34:43;;;;;;;4.80;2.33;;;;;;;11.69;87.08;99972.56;5023686;28;20199;-74
2022/05/29 04:37:08;;;;;;;4.97;2.70;;;;;;;11.65;87.28;99982.13;5022012;28;20187;-73
2022/05/29 04:39:36;;;;;;;6.77;2.60;;;;;;;11.58;88.09;99980.53;5025026;28;20883;-72
2022/05/29 04:42:03;;;;;;;5.13;2.53;;;;;;;11.59;89.06;99983.09;5021117;28;20191;-75
2022/05/29 04:44:29;;;;;;;6.67;3.10;;;;;;;11.68;89.17;99982.06;5019274;28;20214;-76
2022/05/29 04:46:57;;;;;;;5.97;2.30;;;;;;;11.80;89.46;99986.19;5021229;28;20210;-76
2022/05/29 04:49:22;;;;;;;4.53;2.60;;;;;;;11.80;89.70;99983.59;5019050;28;20239;-76
2022/05/29 04:51:48;;;;;;;6.67;2.50;;;;;;;11.79;89.61;99983.63;5020078;28;20190;-76
2022/05/29 04:54:13;;;;;;;7.17;2.90;;;;;;;11.76;89.88;99989.69;5020751;28;20655;-76
2022/05/29 04:56:39;;;;;;;5.07;2.60;;;;;;;11.74;90.66;99984.56;5018098;28;20253;-76
2022/05/29 04:59:04;;;;;;;8.73;2.67;;;;;;;11.74;90.71;99984.56;5021810;28;20253;-76
2022/05/29 05:01:29;;;;;;;7.13;2.90;;;;;;;11.70;90.93;99993.25;5020576;28;20734;-76
2022/05/29 05:03:55;;;;;;;8.33;2.97;;;;;;;11.64;91.23;99992.53;5017670;28;20210;-74
2022/05/29 05:06:20;;;;;;;7.47;2.80;;;;;;;11.61;91.35;99988.25;5020366;28;20200;-74
2022/05/29 05:08:46;;;;;;;5.50;2.43;;;;;;;11.57;91.57;99992.63;5020091;28;20215;-76
2022/05/29 05:11:11;;;;;;;2.97;2.20;;;;;;;11.53;91.13;99990.13;5023323;28;20242;-76
2022/05/29 05:13:36;;;;;;;3.77;2.43;;;;;;;11.53;91.36;99988.41;5024922;28;20195;-76
2022/05/29 05:16:03;;;;;;;5.77;2.37;;;;;;;11.55;91.33;99989.22;5022353;28;20529;-76
2022/05/29 05:18:29;;;;;;;5.80;2.13;;;;;;;11.54;91.47;99991.84;5015700;28;20307;-76
2022/05/29 05:20:55;;;;;;;7.73;2.63;;;;;;;11.59;91.87;100001.22;5022318;28;20207;-75
2022/05/29 05:23:20;;;;;;;5.10;2.77;;;;;;;11.65;91.81;99996.84;5024825;28;20269;-75
2022/05/29 05:25:46;;;;;;;6.53;2.50;;;;;;;11.73;91.34;99995.81;5024627;28;20191;-75
2022/05/29 05:28:11;;;;;;;5.87;2.57;;;;;;;11.84;91.31;99994.75;5026418;28;20215;-74
2022/05/29 05:30:36;;;;;;;4.53;2.47;;;;;;;11.95;90.95;100004.91;5020621;28;20184;-73
2022/05/29 05:33:02;;;;;;;4.27;2.63;;;;;;;12.06;90.43;99997.81;5018997;28;20639;-77
2022/05/29 05:35:28;;;;;;;4.83;2.33;;;;;;;12.20;90.42;100000.13;5017779;28;20211;-77
2022/05/29 05:37:53;;;;;;;5.50;2.50;;;;;;;12.36;90.01;100000.66;5021019;28;20226;-77
2022/05/29 05:40:19;;;;;;;5.23;2.70;;;;;;;12.43;89.35;99993.59;5026244;28;20216;-76
2022/05/29 05:42:44;;;;;;;5.20;2.70;;;;;;;12.49;88.93;100002.09;5010588;28;20271;-77
2022/05/29 05:45:11;;;;;;;9.17;2.50;;;;;;;12.65;88.07;99996.59;5031003;28;21807;-77
2022/05/29 05:47:37;;;;;;;3.50;2.37;;;;;;;12.74;87.18;100003.31;5027991;28;20610;-77
2022/05/29 05:50:04;;;;;;;4.83;2.47;;;;;;;12.78;86.73;100008.41;5027320;28;20207;-77
2022/05/29 05:52:30;;;;;;;6.90;2.90;;;;;;;12.76;84.33;100005.00;5029491;28;20215;-77
2022/05/29 05:54:55;;;;;;;5.47;2.53;;;;;;;12.68;85.24;100000.88;5025952;28;20964;-77
2022/05/29 05:57:21;;;;;;;5.20;2.37;;;;;;;12.57;84.96;100019.28;5037390;28;20321;-77
2022/05/29 05:59:47;;;;;;;5.90;2.67;;;;;;;12.43;84.60;100014.38;5019879;28;20578;-76
2022/05/29 06:02:12;;;;;;;5.63;2.43;;;;;;;12.34;85.23;100020.59;5029073;28;20842;-76
2022/05/29 06:04:40;;;;;;;4.60;2.53;;;;;;;12.18;85.83;100013.13;5026564;28;20215;-74
2022/05/29 06:07:08;;;;;;;6.43;2.77;;;;;;;12.03;86.95;100014.28;5024737;28;20192;-75
2022/05/29 06:09:35;;;;;;;5.77;2.57;;;;;;;11.93;88.14;100017.06;5027318;28;20230;-75
2022/05/29 06:12:03;;;;;;;7.83;3.17;;;;;;;11.81;91.07;100021.59;5027798;28;20214;-74
2022/05/29 06:14:28;;;;;;;7.73;3.03;;;;;;;11.65;96.06;100028.78;5031781;28;20192;-74
2022/05/29 06:16:54;;;;;;;7.13;2.93;;;;;;;11.47;100.00;100032.53;5023166;28;20192;-75
2022/05/29 06:19:19;;;;;;;5.17;2.93;;;;;;;11.38;100.00;100045.66;5023380;28;20213;-74
2022/05/29 06:21:45;;;;;;;8.40;3.60;;;;;;;11.26;98.60;100057.06;5026823;28;20254;-74
2022/05/29 06:24:10;;;;;;;5.50;2.70;;;;;;;11.10;98.69;100052.13;5025973;28;20314;-74
2022/05/29 06:26:35;;;;;;;4.67;2.60;;;;;;;11.00;100.00;100058.31;5022319;28;20284;-76
2022/05/29 06:29:01;;;;;;;5.67;2.60;;;;;;;10.98;100.00;100055.75;5031273;28;20215;-77
2022/05/29 06:31:26;;;;;;;5.70;2.93;;;;;;;11.02;100.00;100051.41;5031800;28;20691;-76
2022/05/29 06:33:51;;;;;;;5.40;2.80;;;;;;;11.02;100.00;100047.94;5030775;28;20651;-77
2022/05/29 06:36:25;;;;;;;4.70;2.80;;;;;;;11.10;100.00;100049.53;5024532;28;20183;-77
2022/05/29 06:38:53;;;;;;;3.80;2.53;;;;;;;11.23;100.00;100050.22;5038796;28;20208;-77
2022/05/29 06:41:21;;;;;;;3.20;2.43;;;;;;;11.39;100.00;100052.56;5030348;28;20187;-77
2022/05/29 06:43:48;;;;;;;2.77;2.40;;;;;;;11.56;100.00;100057.44;5011658;28;20746;-77
2022/05/29 06:46:14;;;;;;;4.23;2.77;;;;;;;11.69;100.00;100052.94;5028258;28;20183;-76
2022/05/29 06:48:40;;;;;;;2.37;2.00;;;;;;;11.80;100.00;100048.41;5021590;28;20227;-74
2022/05/29 06:51:09;;;;;;;2.60;2.07;;;;;;;11.89;100.00;100056.00;5026172;28;20239;-77
2022/05/29 06:53:35;;;;;;;3.10;2.10;;;;;;;11.96;99.92;100053.31;5024965;28;20187;-77
2022/05/29 06:56:00;;;;;;;2.10;1.87;;;;;;;12.02;99.94;100048.91;5029562;28;20188;-77
2022/05/29 06:58:26;;;;;;;4.30;1.90;;;;;;;12.08;99.76;100047.91;5029635;28;20750;-78
2022/05/29 07:09:04;;;;;;;5.07;2.20;;;;;;;12.26;100.00;100058.84;5029960;28;20218;-75
2022/05/29 07:11:34;;;;;;;4.03;2.10;;;;;;;12.28;100.00;100057.91;5027240;28;20192;-75
2022/05/29 07:14:02;;;;;;;5.20;2.80;;;;;;;12.25;100.00;100052.78;5017882;28;20961;-75
2022/05/29 07:16:27;;;;;;;4.93;2.30;;;;;;;12.24;100.00;100045.03;5025110;28;20222;-75
2022/05/29 07:18:54;;;;;;;4.43;2.13;;;;;;;12.22;100.00;100041.59;5032364;28;20246;-75
2022/05/29 07:21:21;;;;;;;7.00;3.13;;;;;;;12.20;100.00;100044.25;5030863;28;20239;-75
2022/05/29 07:23:46;;;;;;;4.93;2.60;;;;;;;12.20;100.00;100042.50;5028268;28;20211;-73
2022/05/29 07:26:12;;;;;;;4.10;2.37;;;;;;;12.22;100.00;100054.56;5029269;28;20230;-75
2022/05/29 07:28:37;;;;;;;4.73;2.57;;;;;;;12.22;100.00;100050.25;5028223;28;20216;-74
2022/05/29 07:31:03;;;;;;;5.33;2.90;;;;;;;12.20;100.00;100047.69;5028818;28;20209;-75
2022/05/29 07:33:30;;;;;;;4.43;2.60;;;;;;;12.19;100.00;100045.13;5031656;28;20687;-75
2022/05/29 07:35:56;;;;;;;5.30;2.90;;;;;;;12.11;100.00;100044.41;5023680;28;20221;-75
2022/05/29 07:38:22;;;;;;;6.03;2.70;;;;;;;12.05;100.00;100042.78;5027573;28;20642;-75
2022/05/29 07:40:48;;;;;;;4.80;2.87;;;;;;;12.01;100.00;100046.34;5019235;28;20198;-74
2022/05/29 07:43:19;;;;;;;5.43;3.10;;;;;;;11.95;100.00;100049.00;5025498;28;20220;-77
2022/05/29 07:45:59;;;;;;;6.07;2.70;;;;;;;11.90;100.00;100042.16;5017741;28;21103;-75
2022/05/29 07:48:28;;;;;;;5.83;3.00;;;;;;;11.86;100.00;100032.75;5013487;28;20215;-76
2022/05/29 07:50:54;;;;;;;6.40;2.83;;;;;;;11.85;100.00;100036.22;5027253;28;20195;-77
2022/05/29 07:53:21;;;;;;;6.17;3.30;;;;;;;11.82;100.00;100035.41;5027048;28;20249;-76
2022/05/29 07:55:47;;;;;;;6.07;3.30;;;;;;;11.82;100.00;100036.28;5027661;28;20291;-75
2022/05/29 07:58:14;;;;;;;4.73;2.90;;;;;;;11.93;100.00;100043.00;5025533;28;20686;-75
2022/05/29 08:00:41;;;;;;;3.80;2.53;;;;;;;12.14;100.00;100042.63;5018672;28;20227;-75
2022/05/29 08:03:07;;;;;;;4.33;2.70;;;;;;;12.34;100.00;100051.72;5025674;28;20207;-76
2022/05/29 08:05:35;;;;;;;5.90;2.83;;;;;;;12.63;100.00;100060.66;5023060;28;20215;-75
2022/05/29 08:08:04;;;;;;;7.43;2.73;;;;;;;13.03;100.00;100065.00;5022779;28;20194;-76
2022/05/29 08:10:32;;;;;;;6.10;2.97;;;;;;;13.37;99.57;100065.94;5029029;28;20882;-75
2022/05/29 08:12:57;;;;;;;5.13;2.80;;;;;;;13.58;98.62;100072.41;5024752;28;20537;-75
2022/05/29 08:15:23;;;;;;;4.73;3.17;;;;;;;13.77;97.58;100064.97;5029252;28;20191;-75
2022/05/29 08:17:48;;;;;;;4.90;3.07;;;;;;;14.01;97.67;100060.88;5029502;28;20221;-75
2022/05/29 08:20:15;;;;;;;6.43;2.97;;;;;;;14.25;96.53;100063.72;5027156;28;20216;-75
2022/05/29 08:22:40;;;;;;;4.20;2.63;;;;;;;14.27;94.63;100066.28;5036293;28;20193;-75
2022/05/29 08:30:40;;;;;;;9.63;8.57;;;;;;;14.48;92.46;100059.59;5026341;28;20256;-75
2022/05/29 08:33:16;;;;;;;6.77;5.83;;;;;;;14.48;93.00;100059.59;5022570;28;20718;-75
2022/05/29 08:35:45;;;;;;;5.73;3.90;;;;;;;14.50;93.26;100060.41;5019557;28;20198;-75
2022/05/29 08:38:13;;;;;;;5.60;3.37;;;;;;;14.62;92.97;100061.81;5030374;28;20187;-74
2022/05/29 08:40:54;;;;;;;17.80;15.30;;;;;;;14.70;91.45;100059.84;5016219;28;20194;-74
2022/05/29 08:43:37;;;;;;;14.47;13.03;;;;;;;14.75;91.05;100055.38;5020387;28;20215;-75
2022/05/29 08:46:26;;;;;;;7.60;5.77;;;;;;;14.61;91.33;100066.16;5017542;28;20202;-76
2022/05/29 08:48:53;;;;;;;7.93;5.60;;;;;;;14.52;91.69;100063.81;5017754;28;20253;-74
2022/05/29 08:51:38;;;;;;;4.43;3.50;;;;;;;14.32;91.00;100067.84;5021906;28;20227;-75
2022/05/29 08:54:09;;;;;;;4.77;2.83;;;;;;;14.13;91.61;100071.88;5012981;28;20233;-74
2022/05/29 08:56:45;;;;;;;2.97;2.07;;;;;;;14.02;91.91;100066.94;5019794;28;20191;-74
2022/05/29 08:59:45;;;;;;;4.33;2.10;;;;;;;13.98;91.58;100062.72;5019225;28;20206;-74
2022/05/29 09:02:40;;;;;;;4.13;2.33;;;;;;;13.69;90.72;100066.94;5023550;28;20211;-74
2022/05/29 09:05:37;;;;;;;4.17;1.83;;;;;;;13.71;91.13;100063.38;5016236;28;21969;-74
2022/05/29 09:08:11;;;;;;;3.43;1.93;;;;;;;13.60;89.58;100060.22;5019412;28;20292;-75
2022/05/29 09:10:50;;;;;;;3.53;1.80;;;;;;;13.64;90.22;100050.59;5020140;28;20232;-74
2022/05/29 09:13:24;;;;;;;3.70;2.30;;;;;;;13.87;90.10;100057.78;5017262;28;20192;-75
2022/05/29 09:15:52;;;;;;;2.80;1.47;;;;;;;13.97;88.75;100056.66;5022441;28;20211;-75
2022/05/29 09:18:30;;;;;;;2.83;1.87;;;;;;;13.81;86.47;100047.56;5019737;28;20301;-75
2022/05/29 09:20:58;;;;;;;2.77;1.63;;;;;;;13.75;88.21;100068.50;5024571;28;20195;-75
2022/05/29 09:23:29;;;;;;;3.33;2.03;;;;;;;13.60;89.39;100056.78;5029001;28;20223;-74
2022/05/29 09:25:56;;;;;;;4.33;1.97;;;;;;;13.76;89.07;100054.63;5025943;28;20259;-75
2022/05/29 09:28:25;;;;;;;2.87;1.87;;;;;;;14.11;86.68;100051.06;5019728;28;20296;-75
2022/05/29 09:31:02;;;;;;;4.57;1.60;;;;;;;14.57;85.12;100038.50;5015183;28;20205;-75
2022/05/29 09:33:29;;;;;;;2.10;1.77;;;;;;;14.97;84.17;100048.66;5021904;28;20209;-75
2022/05/29 09:36:22;;;;;;;2.97;1.70;;;;;;;15.26;83.64;100047.75;5025397;28;20207;-74
2022/05/29 09:38:53;;;;;;;2.03;1.47;;;;;;;15.43;82.84;100048.94;5027014;28;20219;-75
2022/05/29 09:41:31;;;;;;;2.63;1.33;;;;;;;15.40;81.56;100057.69;5020514;28;20198;-75
2022/05/29 09:44:18;;;;;;;3.60;1.50;;;;;;;15.20;82.07;100042.72;5024009;28;20360;-75
2022/05/29 09:46:46;;;;;;;2.97;1.50;;;;;;;15.50;82.36;100045.22;5016688;28;20201;-74
2022/05/29 09:52:25;;;;;;;2.67;1.83;;;;;;;15.79;81.16;100032.94;5019334;28;20602;-75
2022/05/29 09:54:52;;;;;;;2.67;1.87;;;;;;;15.75;80.86;100034.81;5022139;28;20510;-74
2022/05/29 09:57:25;;;;;;;2.13;1.40;;;;;;;16.23;80.20;100029.69;5040856;28;20527;-75
2022/05/29 10:00:05;;;;;;;3.83;1.63;;;;;;;16.05;77.95;100034.66;5035733;28;20687;-74
2022/05/29 10:02:37;;;;;;;2.97;1.60;;;;;;;16.13;77.07;100032.63;5026360;28;20187;-74
2022/05/29 10:05:05;;;;;;;2.53;1.33;;;;;;;16.36;75.87;100024.84;5027094;28;20295;-74
2022/05/29 10:07:37;;;;;;;3.03;1.50;;;;;;;16.18;75.36;100019.41;5026943;28;20550;-74
2022/05/29 10:10:05;;;;;;;2.90;1.67;;;;;;;16.03;76.31;100027.81;5022992;28;20204;-75
2022/05/29 10:12:41;;;;;;;2.17;1.40;;;;;;;15.80;78.11;100026.81;5022716;28;20190;-74
2022/05/29 10:15:15;;;;;;;2.27;1.33;;;;;;;15.39;78.03;100029.91;5024695;28;20187;-75
2022/05/29 10:17:41;;;;;;;2.17;1.40;;;;;;;15.38;79.25;100018.66;5022256;28;20195;-75
2022/05/29 10:20:31;;;;;;;3.00;1.50;;;;;;;15.52;78.24;100018.16;5023514;28;20203;-74
2022/05/29 10:23:01;;;;;;;1.73;1.30;;;;;;;15.48;77.40;100018.34;5025985;28;20201;-74
2022/05/29 10:25:30;;;;;;;2.17;1.60;;;;;;;15.34;77.92;100011.00;5018569;28;20761;-74
2022/05/29 10:28:01;;;;;;;3.33;1.60;;;;;;;15.45;77.05;100015.81;5023646;28;20282;-75
2022/05/29 10:30:55;;;;;;;2.17;1.20;;;;;;;15.55;76.32;100009.41;5029073;28;20190;-75
2022/05/29 10:33:23;;;;;;;2.17;1.60;;;;;;;15.57;75.71;100001.53;5024247;28;20179;-75
2022/05/29 10:35:58;;;;;;;2.50;1.47;;;;;;;15.62;75.81;100000.44;5023648;28;20233;-75
2022/05/29 10:38:27;;;;;;;2.33;1.33;;;;;;;15.77;75.98;99988.66;5036861;28;20224;-76
2022/05/29 10:40:57;;;;;;;3.07;1.90;;;;;;;15.84;75.24;99991.88;5029151;28;20202;-75
2022/05/29 10:43:43;;;;;;;2.57;1.50;;;;;;;15.95;74.30;99992.38;5021324;28;20212;-75
2022/05/29 10:46:25;;;;;;;2.97;1.63;;;;;;;16.19;74.01;99996.75;5020820;28;20671;-75
2022/05/29 10:49:06;;;;;;;3.00;1.20;;;;;;;16.33;74.10;99989.25;5025590;28;20679;-75
2022/05/29 10:52:03;;;;;;;3.03;1.37;;;;;;;16.75;72.57;99988.50;5024286;28;20198;-75
2022/05/29 10:54:41;;;;;;;3.43;1.53;;;;;;;16.99;72.67;99982.41;5006400;28;20203;-74
2022/05/29 10:57:28;;;;;;;3.00;1.47;;;;;;;16.96;71.82;99979.91;5023924;28;20198;-75
2022/05/29 11:00:03;;;;;;;2.20;1.13;;;;;;;17.02;72.03;99990.13;5020860;28;21037;-74
2022/05/29 11:05:46;;;;;;;2.37;1.37;;;;;;;17.02;67.54;99980.50;5018357;28;20200;-74
2022/05/29 11:08:36;;;;;;;2.27;1.37;;;;;;;17.35;67.77;99979.19;5023144;28;20220;-75
2022/05/29 11:11:17;;;;;;;2.07;1.43;;;;;;;17.51;67.94;99975.00;5021557;28;20281;-74
2022/05/29 11:14:02;;;;;;;1.77;1.43;;;;;;;17.52;67.55;99973.22;5018073;28;20215;-74
2022/05/29 11:16:37;;;;;;;2.00;1.00;;;;;;;17.74;67.94;99959.22;5025443;28;20191;-74
2022/05/29 11:19:08;;;;;;;1.57;1.10;;;;;;;18.01;67.57;99958.94;5023842;28;20207;-76
2022/05/29 11:21:58;;;;;;;1.90;1.30;;;;;;;18.30;67.26;99955.00;5019966;28;20201;-75
2022/05/29 11:24:37;;;;;;;2.57;1.40;;;;;;;18.18;65.49;99948.53;5021005;28;20228;-76
2022/05/29 11:27:21;;;;;;;2.80;1.20;;;;;;;18.28;64.38;99948.97;5018774;28;20194;-75
2022/05/29 11:30:02;;;;;;;1.97;1.27;;;;;;;18.34;63.47;99939.97;5020675;28;20208;-75
2022/05/29 11:32:52;;;;;;;2.90;1.13;;;;;;;18.19;63.76;99937.16;5022717;28;20226;-76
2022/05/29 11:35:21;;;;;;;2.00;1.27;;;;;;;18.36;63.55;99940.75;5018852;28;20311;-75
2022/05/29 11:38:17;;;;;;;2.13;1.33;;;;;;;18.45;63.20;99931.63;5021113;28;20194;-76
2022/05/29 11:40:51;;;;;;;1.80;1.30;;;;;;;18.49;63.36;99922.66;5024755;28;20256;-74
2022/05/29 11:43:22;;;;;;;3.07;1.37;;;;;;;18.67;63.01;99920.94;5019890;28;20673;-74
2022/05/29 11:51:43;;;;;;;2.03;1.27;;;;;;;19.36;61.12;99910.56;5021212;28;20564;-75
2022/05/29 11:54:36;;;;;;;3.80;1.50;;;;;;;19.22;61.01;99911.28;5015977;28;20190;-73
2022/05/29 11:57:14;;;;;;;2.63;1.70;;;;;;;18.99;59.34;99901.03;5017210;28;20602;-74
2022/05/29 12:00:03;;;;;;;2.20;1.17;;;;;;;18.61;60.21;99895.03;5019499;28;20210;-74
2022/05/29 12:02:46;;;;;;;2.77;1.23;;;;;;;18.57;61.22;99897.78;5025376;28;20194;-75
2022/05/29 12:05:28;;;;;;;2.83;1.43;;;;;;;18.67;61.18;99902.59;5027526;28;20250;-75
2022/05/29 12:08:08;;;;;;;1.77;1.23;;;;;;;18.92;60.85;99898.75;5024247;28;20194;-75
2022/05/29 12:10:55;;;;;;;2.57;1.50;;;;;;;19.19;60.13;99894.75;5025678;28;20218;-75
2022/05/29 12:13:26;;;;;;;2.60;1.40;;;;;;;19.43;61.41;99901.44;5022879;28;20314;-74
2022/05/29 12:15:59;;;;;;;3.67;1.97;;;;;;;19.28;62.20;99896.06;5021356;28;20735;-75
2022/05/29 12:18:34;;;;;;;2.90;1.77;;;;;;;18.99;62.92;99894.91;5021083;28;20605;-75
2022/05/29 12:21:02;;;;;;;2.33;1.70;;;;;;;18.89;61.77;99897.97;5025033;28;20830;-75